Terminal Aerodrome Forecast
Issued by NWS

Home | Current Version | Previous Version | Text Only | Print | Product List | Glossary On
Versions: 1 2 3 4 5 6 7 8 9 10 11 12 13 14
719
FTUS42 TJSJ 051120
TAFJBQ
TAF
TJBQ 051120Z 0512/0612 11005KT P6SM VCSH SCT027 SCT035 BKN070
     FM051400 06012KT P6SM SCT025 SCT040
     FM052100 09008KT P6SM SCT025
      AMD NOT SKED 0602/0611=

USA.gov is the U.S. government's official web portal to all federal, state and local government web resources and services.